createdAt,value
2022-12-23T00:01:13.518Z,13.43
2022-12-23T00:03:40.902Z,14.50
2022-12-23T00:06:12.613Z,15.82
2022-12-23T00:08:39.905Z,13.55
2022-12-23T00:11:07.757Z,15.82
2022-12-23T00:13:54.622Z,14.95
2022-12-23T00:16:22.977Z,15.23
2022-12-23T00:18:50.187Z,16.02
2022-12-23T00:21:17.933Z,16.75
2022-12-23T00:23:46.654Z,16.42
2022-12-23T00:26:15.505Z,13.85
2022-12-23T00:28:42.716Z,15.25
2022-12-23T00:31:10.400Z,14.75
2022-12-23T00:33:39.227Z,15.30
2022-12-23T00:36:13.003Z,13.50
2022-12-23T00:38:58.734Z,15.85
2022-12-23T00:41:44.747Z,15.07
2022-12-23T00:44:11.913Z,15.70
2022-12-23T00:46:39.161Z,15.20
2022-12-23T00:49:27.425Z,14.50
2022-12-23T00:51:54.545Z,11.75
2022-12-23T00:54:21.708Z,13.85
2022-12-23T00:56:48.780Z,10.93
2022-12-23T00:59:15.889Z,12.20
2022-12-23T01:02:02.360Z,12.02
2022-12-23T01:04:48.796Z,14.05
2022-12-23T01:07:15.876Z,10.75
2022-12-23T01:09:42.977Z,13.15
2022-12-23T01:12:10.006Z,13.65
2022-12-23T01:14:37.171Z,11.77
2022-12-23T01:17:06.010Z,12.55
2022-12-23T01:19:33.297Z,12.68
2022-12-23T01:22:04.697Z,12.93
2022-12-23T01:24:32.328Z,12.85
2022-12-23T01:26:59.743Z,13.52
2022-12-23T01:29:27.166Z,15.95
2022-12-23T01:31:56.577Z,13.15
2022-12-23T01:34:23.895Z,12.85
2022-12-23T01:36:52.912Z,12.52
2022-12-23T01:39:20.034Z,13.35
2022-12-23T01:42:06.701Z,12.80
2022-12-23T01:45:06.219Z,12.75
2022-12-23T01:47:49.218Z,15.00
2022-12-23T01:50:51.688Z,12.30
2022-12-23T01:53:18.791Z,12.07
2022-12-23T01:55:51.624Z,12.52
2022-12-23T01:58:20.781Z,12.93
2022-12-23T02:01:06.516Z,12.13
2022-12-23T02:03:44.027Z,11.18
2022-12-23T02:06:31.645Z,11.63
2022-12-23T02:09:17.073Z,9.65
2022-12-23T02:11:59.090Z,10.65
2022-12-23T02:15:03.069Z,9.65
2022-12-23T02:17:44.064Z,10.98
2022-12-23T02:20:29.739Z,9.18
2022-12-23T02:23:15.919Z,9.65
2022-12-23T02:25:43.042Z,10.00
2022-12-23T02:28:33.800Z,9.63
2022-12-23T02:31:33.113Z,8.02
2022-12-23T02:34:02.962Z,8.60
2022-12-23T02:36:39.398Z,7.47
2022-12-23T02:39:09.899Z,7.32
2022-12-23T02:41:43.042Z,7.15
2022-12-23T02:44:14.282Z,6.40
2022-12-23T02:46:48.970Z,6.85
2022-12-23T02:49:19.349Z,6.95
2022-12-23T02:51:49.709Z,6.30
2022-12-23T02:54:19.301Z,6.93
2022-12-23T02:56:48.728Z,7.20
2022-12-23T02:59:19.001Z,5.63
2022-12-23T03:01:46.695Z,6.10
2022-12-23T03:04:15.129Z,6.45
2022-12-23T03:06:43.967Z,5.95
2022-12-23T03:09:14.263Z,7.22
2022-12-23T03:11:45.959Z,6.50
2022-12-23T03:14:25.240Z,5.38
2022-12-23T03:16:55.642Z,6.57
2022-12-23T03:19:25.558Z,6.22
2022-12-23T03:22:10.878Z,6.35
2022-12-23T03:24:42.801Z,6.18
2022-12-23T03:27:36.062Z,7.22
2022-12-23T03:30:12.391Z,6.63
2022-12-23T03:32:55.473Z,6.13
2022-12-23T03:35:26.990Z,6.95
2022-12-23T03:37:55.074Z,6.28
2022-12-23T03:40:30.129Z,6.55
2022-12-23T03:42:59.800Z,6.63
2022-12-23T03:45:39.419Z,7.43
2022-12-23T03:48:16.162Z,6.80
2022-12-23T03:50:43.830Z,7.05
2022-12-23T03:53:23.539Z,7.80
2022-12-23T03:55:59.209Z,8.07
2022-12-23T03:58:32.462Z,8.57
2022-12-23T04:01:13.613Z,6.72
2022-12-23T04:03:50.194Z,7.03
2022-12-23T04:06:18.413Z,7.32
2022-12-23T04:08:47.085Z,6.70
2022-12-23T04:11:14.537Z,7.07
2022-12-23T04:13:41.816Z,6.80
2022-12-23T04:16:12.177Z,7.15
2022-12-23T04:18:39.365Z,7.40
2022-12-23T04:21:09.584Z,7.47
2022-12-23T04:23:36.661Z,7.07
2022-12-23T04:26:03.853Z,8.60
2022-12-23T04:28:30.943Z,8.55
2022-12-23T04:30:58.188Z,8.10
2022-12-23T04:33:25.265Z,7.53
2022-12-23T04:35:52.481Z,8.57
2022-12-23T04:38:19.540Z,8.77
2022-12-23T04:40:47.266Z,8.57
2022-12-23T04:43:14.534Z,7.80
2022-12-23T04:45:41.605Z,8.70
2022-12-23T04:48:09.354Z,7.88
2022-12-23T04:50:36.629Z,7.97
2022-12-23T04:53:03.677Z,7.78
2022-12-23T04:55:33.392Z,7.90
2022-12-23T04:58:01.953Z,9.30
2022-12-23T05:00:32.674Z,8.23
2022-12-23T05:03:02.786Z,7.63
2022-12-23T05:05:29.892Z,8.45
2022-12-23T05:08:02.999Z,8.75
2022-12-23T05:10:30.135Z,8.48
2022-12-23T05:12:58.301Z,8.20
2022-12-23T05:15:28.440Z,9.50
2022-12-23T05:17:55.505Z,8.73
2022-12-23T05:20:22.635Z,9.07
2022-12-23T05:22:49.714Z,9.32
2022-12-23T05:25:16.754Z,9.18
2022-12-23T05:27:43.816Z,10.48
2022-12-23T05:30:13.616Z,9.05
2022-12-23T05:32:40.724Z,10.27
2022-12-23T05:35:08.042Z,10.70
2022-12-23T05:37:35.153Z,11.57
2022-12-23T05:40:02.307Z,11.32
2022-12-23T05:42:29.568Z,10.65
2022-12-23T05:44:56.616Z,10.77
2022-12-23T05:47:26.836Z,13.25
2022-12-23T05:49:53.880Z,11.65
2022-12-23T05:52:20.986Z,9.68
2022-12-23T05:54:48.155Z,12.07
2022-12-23T05:57:15.209Z,11.75
2022-12-23T05:59:42.386Z,12.30
2022-12-23T06:02:11.852Z,11.82
2022-12-23T06:04:42.043Z,11.30
2022-12-23T06:07:09.775Z,11.70
2022-12-23T06:09:36.934Z,12.80
2022-12-23T06:12:06.461Z,11.02
2022-12-23T06:14:33.521Z,10.40
2022-12-23T06:17:00.761Z,9.95
2022-12-23T06:19:27.984Z,9.95
2022-12-23T06:21:55.086Z,13.30
2022-12-23T06:24:22.354Z,12.45
2022-12-23T06:26:54.909Z,10.82
2022-12-23T06:29:24.315Z,11.98
2022-12-23T06:31:51.580Z,12.43
2022-12-23T06:34:18.785Z,10.70
2022-12-23T06:36:45.871Z,14.15
2022-12-23T06:39:13.004Z,13.73
2022-12-23T06:41:40.175Z,13.48
2022-12-23T06:44:10.386Z,14.35
2022-12-23T06:46:37.443Z,12.15
2022-12-23T06:49:10.896Z,11.55
2022-12-23T06:51:40.137Z,13.18
2022-12-23T06:54:07.294Z,13.25
2022-12-23T06:56:34.610Z,14.68
2022-12-23T06:59:01.789Z,12.68
2022-12-23T07:01:28.960Z,12.45
2022-12-23T07:03:56.075Z,11.98
2022-12-23T07:06:23.116Z,12.38
2022-12-23T07:08:53.268Z,12.15
2022-12-23T07:11:20.316Z,12.25
2022-12-23T07:13:47.433Z,12.75
2022-12-23T07:16:25.402Z,12.88
2022-12-23T07:18:52.679Z,13.57
2022-12-23T07:21:28.597Z,14.57
2022-12-23T07:23:56.799Z,13.25
2022-12-23T07:26:23.925Z,13.00
2022-12-23T07:28:53.037Z,13.02
2022-12-23T07:31:20.221Z,12.70
2022-12-23T07:33:47.422Z,13.82
2022-12-23T07:36:14.511Z,14.88
2022-12-23T07:38:41.685Z,12.30
2022-12-23T07:41:08.748Z,12.93
2022-12-23T07:43:35.859Z,15.23
2022-12-23T07:46:09.811Z,15.15
2022-12-23T07:48:39.288Z,12.35
2022-12-23T07:51:09.323Z,13.52
2022-12-23T07:53:36.599Z,13.48
2022-12-23T07:56:03.779Z,15.73
2022-12-23T07:58:30.870Z,14.10
2022-12-23T08:01:00.188Z,13.13
2022-12-23T08:03:28.652Z,12.90
2022-12-23T08:06:06.363Z,12.98
2022-12-23T08:08:33.614Z,13.13
2022-12-23T08:11:02.008Z,13.35
2022-12-23T08:13:29.415Z,12.93
2022-12-23T08:15:57.286Z,14.07
2022-12-23T08:18:24.449Z,13.18
2022-12-23T08:21:01.948Z,13.55
2022-12-23T08:23:29.824Z,13.38
2022-12-23T08:26:00.856Z,13.52
2022-12-23T08:28:28.180Z,15.45
2022-12-23T08:30:55.352Z,14.27
2022-12-23T08:33:26.857Z,14.48
2022-12-23T08:35:57.092Z,15.32
2022-12-23T08:38:27.547Z,15.65
2022-12-23T08:40:54.853Z,17.00
2022-12-23T08:43:22.091Z,15.85
2022-12-23T08:45:49.307Z,15.52
2022-12-23T08:48:16.676Z,18.48
2022-12-23T08:50:45.039Z,18.00
2022-12-23T08:53:12.843Z,18.58
2022-12-23T08:55:41.444Z,17.85
2022-12-23T08:58:10.112Z,18.35
2022-12-23T09:00:39.966Z,18.65
2022-12-23T09:03:07.813Z,18.27
2022-12-23T09:05:42.048Z,18.25
2022-12-23T09:08:09.927Z,16.73
2022-12-23T09:10:45.784Z,18.27
2022-12-23T09:13:17.914Z,19.77
2022-12-23T09:15:55.399Z,17.00
2022-12-23T09:18:25.058Z,17.30
2022-12-23T09:20:57.817Z,17.45
2022-12-23T09:23:24.979Z,18.05
2022-12-23T09:25:54.979Z,19.25
2022-12-23T09:28:22.587Z,19.27
2022-12-23T09:30:49.794Z,19.50
2022-12-23T09:33:17.270Z,18.85
2022-12-23T09:35:44.445Z,18.52
2022-12-23T09:38:13.828Z,19.05
2022-12-23T09:40:42.406Z,18.23
2022-12-23T09:43:21.496Z,20.33
2022-12-23T09:45:52.978Z,19.70
2022-12-23T09:48:21.895Z,18.02
2022-12-23T09:50:49.442Z,18.13
2022-12-23T09:53:20.991Z,17.95
2022-12-23T09:56:17.622Z,16.58
2022-12-23T09:59:02.484Z,16.05
2022-12-23T10:01:45.418Z,15.60
2022-12-23T10:04:32.046Z,14.35
2022-12-23T10:07:10.020Z,15.00
2022-12-23T10:09:41.823Z,15.95
2022-12-23T10:12:14.892Z,15.80
2022-12-23T10:14:42.384Z,15.05
2022-12-23T10:17:24.657Z,14.50
2022-12-23T10:19:55.260Z,11.18
2022-12-23T10:22:43.433Z,10.45
2022-12-23T10:25:15.993Z,10.60
2022-12-23T10:27:47.139Z,10.07
2022-12-23T10:33:15.177Z,10.02
2022-12-23T10:35:49.729Z,10.68
2022-12-23T10:38:19.742Z,11.27
2022-12-23T10:41:02.448Z,11.88
2022-12-23T10:43:58.063Z,12.52
2022-12-23T10:46:39.354Z,13.25
2022-12-23T10:49:16.487Z,12.93
2022-12-23T10:51:51.480Z,13.25
2022-12-23T10:54:24.757Z,14.82
2022-12-23T10:56:51.962Z,15.53
2022-12-23T10:59:22.555Z,15.93
2022-12-23T11:01:53.010Z,17.02
2022-12-23T11:04:22.661Z,16.13
2022-12-23T11:07:18.090Z,19.17
2022-12-23T11:09:47.837Z,17.42
2022-12-23T11:12:15.892Z,18.95
2022-12-23T11:14:56.838Z,18.98
2022-12-23T11:17:25.358Z,18.35
2022-12-23T11:20:10.946Z,20.85
2022-12-23T11:22:49.374Z,20.48
2022-12-23T11:25:28.287Z,21.70
2022-12-23T11:27:58.071Z,22.90
2022-12-23T11:30:25.513Z,24.08
2022-12-23T11:32:54.222Z,24.48
2022-12-23T11:35:27.356Z,23.75
2022-12-23T11:37:57.092Z,25.80
2022-12-23T11:40:34.109Z,26.45
2022-12-23T11:43:08.361Z,24.80
2022-12-23T11:45:37.333Z,27.27
2022-12-23T11:48:08.304Z,28.40
2022-12-23T11:50:39.898Z,25.55
2022-12-23T11:53:21.612Z,25.05
2022-12-23T11:56:03.787Z,24.05
2022-12-23T11:58:31.755Z,25.58
2022-12-23T12:01:00.455Z,25.35
2022-12-23T12:03:30.516Z,25.33
2022-12-23T12:06:14.770Z,24.63
2022-12-23T12:08:52.238Z,26.55
2022-12-23T12:11:30.512Z,24.58
2022-12-23T12:14:28.209Z,25.83
2022-12-23T12:17:01.231Z,22.98
2022-12-23T12:19:56.303Z,19.75
2022-12-23T12:22:43.592Z,20.75
2022-12-23T12:25:22.889Z,21.77
2022-12-23T12:27:59.694Z,22.38
2022-12-23T12:30:41.661Z,19.67
2022-12-23T12:33:32.202Z,19.08
2022-12-23T12:36:09.228Z,18.75
2022-12-23T12:38:53.086Z,19.00
2022-12-23T12:41:32.054Z,18.50
2022-12-23T12:44:14.636Z,18.20
2022-12-23T12:46:50.734Z,17.80
2022-12-23T12:49:24.469Z,18.77
2022-12-23T12:52:11.585Z,17.73
2022-12-23T12:55:09.486Z,18.40
2022-12-23T12:58:03.349Z,17.30
2022-12-23T13:00:42.732Z,18.63
2022-12-23T13:03:33.231Z,15.70
2022-12-23T13:06:14.331Z,16.98
2022-12-23T13:08:54.936Z,17.20
2022-12-23T13:11:30.848Z,17.90
2022-12-23T13:14:01.101Z,18.40
2022-12-23T13:16:47.050Z,17.35
2022-12-23T13:19:39.479Z,16.10
2022-12-23T13:22:16.791Z,14.68
2022-12-23T13:24:57.557Z,16.75
2022-12-23T13:27:46.042Z,14.85
2022-12-23T13:30:15.766Z,14.38
2022-12-23T13:33:06.603Z,17.05
2022-12-23T13:36:05.384Z,15.60
2022-12-23T13:38:47.063Z,15.43
2022-12-23T13:44:18.787Z,15.95
2022-12-23T13:47:06.626Z,18.13
2022-12-23T13:49:41.003Z,15.90
2022-12-23T13:52:33.122Z,16.33
2022-12-23T13:57:58.844Z,16.65
2022-12-23T14:00:41.164Z,18.00
2022-12-23T14:03:35.684Z,17.95
2022-12-23T14:06:22.645Z,16.17
2022-12-23T14:08:57.041Z,17.90
2022-12-23T14:11:33.386Z,16.60
2022-12-23T14:14:10.362Z,18.30
2022-12-23T14:16:56.226Z,16.25
2022-12-23T14:19:40.637Z,16.55
2022-12-23T14:22:17.928Z,16.48
2022-12-23T14:24:55.312Z,16.50
2022-12-23T14:27:27.465Z,14.80
2022-12-23T14:30:15.995Z,14.70
2022-12-23T14:33:12.462Z,15.57
2022-12-23T14:35:44.280Z,14.70
2022-12-23T14:38:13.861Z,15.23
2022-12-23T14:40:49.945Z,15.60
2022-12-23T14:43:26.371Z,13.82
2022-12-23T14:45:57.761Z,14.73
2022-12-23T14:49:22.543Z,13.48
2022-12-23T14:51:43.907Z,14.15
2022-12-23T14:54:17.872Z,12.85
2022-12-23T14:57:07.333Z,13.18
2022-12-23T15:00:01.078Z,13.10
2022-12-23T15:02:34.230Z,12.63
2022-12-23T15:05:06.936Z,13.07
2022-12-23T15:07:39.713Z,13.88
2022-12-23T15:10:23.467Z,13.25
2022-12-23T15:12:58.420Z,13.40
2022-12-23T15:18:18.475Z,13.05
2022-12-23T15:21:29.970Z,12.68
2022-12-23T15:23:57.537Z,14.15
2022-12-23T15:26:26.756Z,13.00
2022-12-23T15:28:54.191Z,11.57
2022-12-23T15:31:32.767Z,12.25
2022-12-23T15:34:17.047Z,12.90
2022-12-23T15:36:54.732Z,15.27
2022-12-23T15:40:06.130Z,13.45
2022-12-23T15:42:38.449Z,13.13
2022-12-23T15:45:25.308Z,12.65
2022-12-23T15:47:52.579Z,13.00
2022-12-23T15:50:30.304Z,13.25
2022-12-23T15:53:05.511Z,14.25
2022-12-23T15:55:41.026Z,13.57
2022-12-23T15:58:28.958Z,14.02
2022-12-23T16:01:04.016Z,13.90
2022-12-23T16:03:38.331Z,13.85
2022-12-23T16:06:20.426Z,15.23
2022-12-23T16:09:02.765Z,13.43
2022-12-23T16:11:53.693Z,14.38
2022-12-23T16:14:26.127Z,13.90
2022-12-23T16:17:00.284Z,14.02
2022-12-23T16:19:40.928Z,17.02
2022-12-23T16:22:32.009Z,16.48
2022-12-23T16:25:13.181Z,20.77
2022-12-23T16:27:48.259Z,16.90
2022-12-23T16:30:20.187Z,13.82
2022-12-23T16:32:50.308Z,14.30
2022-12-23T16:35:38.603Z,14.05
2022-12-23T16:38:34.762Z,13.38
2022-12-23T16:41:01.981Z,14.52
2022-12-23T16:43:31.604Z,17.48
2022-12-23T16:46:00.419Z,16.10
2022-12-23T16:48:30.089Z,14.13
2022-12-23T16:51:06.861Z,17.05
2022-12-23T16:53:34.026Z,18.58
2022-12-23T16:56:04.012Z,17.05
2022-12-23T16:58:34.129Z,18.50
2022-12-23T17:01:23.578Z,20.20
2022-12-23T17:03:55.539Z,18.35
2022-12-23T17:06:23.482Z,17.17
2022-12-23T17:08:51.015Z,13.88
2022-12-23T17:11:32.997Z,14.90
2022-12-23T17:14:05.864Z,12.73
2022-12-23T17:16:37.503Z,12.73
2022-12-23T17:19:05.647Z,12.70
2022-12-23T17:21:39.848Z,10.73
2022-12-23T17:24:25.798Z,10.50
2022-12-23T17:26:53.509Z,10.60
2022-12-23T17:29:20.820Z,11.63
2022-12-23T17:31:49.336Z,11.98
2022-12-23T17:34:19.756Z,12.70
2022-12-23T17:36:50.403Z,15.10
2022-12-23T17:39:18.881Z,12.85
2022-12-23T17:41:46.392Z,13.98
2022-12-23T17:44:17.470Z,13.85
2022-12-23T17:46:45.855Z,14.68
2022-12-23T17:49:19.202Z,14.82
2022-12-23T17:54:24.208Z,14.40
2022-12-23T17:56:53.570Z,12.75
2022-12-23T17:59:23.716Z,15.00
2022-12-23T18:01:53.893Z,14.20
2022-12-23T18:04:33.045Z,11.88
2022-12-23T18:09:48.675Z,10.77
2022-12-23T18:18:46.177Z,10.23
2022-12-23T18:21:49.404Z,8.55
2022-12-23T18:24:17.818Z,6.72
2022-12-23T18:27:40.771Z,7.15
2022-12-23T18:32:58.282Z,7.85
2022-12-23T18:35:46.959Z,7.68
2022-12-23T18:38:14.226Z,8.00
2022-12-23T18:40:59.150Z,7.35
2022-12-23T18:43:28.135Z,7.53
2022-12-23T18:45:59.688Z,6.63
2022-12-23T18:48:29.268Z,8.32
2022-12-23T18:50:56.499Z,7.05
2022-12-23T18:53:26.692Z,6.97
2022-12-23T18:55:58.963Z,7.32
2022-12-23T18:58:28.915Z,7.05
2022-12-23T19:00:56.926Z,7.35
2022-12-23T19:03:25.992Z,7.38
2022-12-23T19:05:53.873Z,6.40
2022-12-23T19:08:26.140Z,6.85
2022-12-23T19:10:57.004Z,6.18
2022-12-23T19:13:24.482Z,7.15
2022-12-23T19:15:53.904Z,6.88
2022-12-23T19:18:28.344Z,5.97
2022-12-23T19:20:57.930Z,6.53
2022-12-23T19:23:28.357Z,7.20
2022-12-23T19:25:55.781Z,7.13
2022-12-23T19:28:23.398Z,6.55
2022-12-23T19:30:50.747Z,5.53
2022-12-23T19:33:18.124Z,5.78
2022-12-23T19:35:45.523Z,5.68
2022-12-23T19:38:12.818Z,5.55
2022-12-23T19:40:40.135Z,7.70
2022-12-23T19:43:10.068Z,6.75
2022-12-23T19:45:39.754Z,6.60
2022-12-23T19:48:09.809Z,6.53
2022-12-23T19:50:45.762Z,7.50
2022-12-23T19:53:13.004Z,6.28
2022-12-23T19:55:40.297Z,6.22
2022-12-23T19:58:10.680Z,5.68
2022-12-23T20:00:37.834Z,5.95
2022-12-23T20:03:08.285Z,6.70
2022-12-23T20:05:37.303Z,6.95
2022-12-23T20:08:04.416Z,6.80
2022-12-23T20:10:31.578Z,6.85
2022-12-23T20:12:58.792Z,6.93
2022-12-23T20:15:30.345Z,6.80
2022-12-23T20:17:57.675Z,6.72
2022-12-23T20:20:26.215Z,6.65
2022-12-23T20:22:55.709Z,6.07
2022-12-23T20:25:25.611Z,6.68
2022-12-23T20:28:01.501Z,5.63
2022-12-23T20:30:37.667Z,6.38
2022-12-23T20:33:09.341Z,5.30
2022-12-23T20:35:40.948Z,4.60
2022-12-23T20:38:08.503Z,5.03
2022-12-23T20:40:35.650Z,5.22
2022-12-23T20:43:04.029Z,6.07
2022-12-23T20:45:31.177Z,3.85
2022-12-23T20:48:01.396Z,4.60
2022-12-23T20:50:28.547Z,4.22
2022-12-23T20:52:55.803Z,4.13
2022-12-23T20:55:22.954Z,4.63
2022-12-23T20:57:50.114Z,4.20
2022-12-23T21:00:17.419Z,5.35
2022-12-23T21:02:44.682Z,4.75
2022-12-23T21:05:14.793Z,5.05
2022-12-23T21:07:41.965Z,5.88
2022-12-23T21:10:09.426Z,4.53
2022-12-23T21:12:36.554Z,3.70
2022-12-23T21:15:03.677Z,4.05
2022-12-23T21:17:31.161Z,5.28
2022-12-23T21:20:00.560Z,5.32
2022-12-23T21:22:33.138Z,5.50
2022-12-23T21:25:00.283Z,5.28
2022-12-23T21:27:27.554Z,4.72
2022-12-23T21:29:54.670Z,3.92
2022-12-23T21:32:24.909Z,5.03
2022-12-23T21:34:52.033Z,5.03
2022-12-23T21:37:19.131Z,4.40
2022-12-23T21:39:46.230Z,4.65
2022-12-23T21:42:16.325Z,4.95
2022-12-23T21:44:46.129Z,5.18
2022-12-23T21:47:13.382Z,3.70
2022-12-23T21:49:42.205Z,4.40
2022-12-23T21:52:09.365Z,4.07
2022-12-23T21:54:36.689Z,3.50
2022-12-23T21:57:03.746Z,3.25
2022-12-23T21:59:34.955Z,4.32
2022-12-23T22:02:07.252Z,4.32
2022-12-23T22:04:34.471Z,4.40
2022-12-23T22:07:01.579Z,4.57
2022-12-23T22:09:46.722Z,4.75
2022-12-23T22:12:13.767Z,3.35
2022-12-23T22:14:40.925Z,3.97
2022-12-23T22:17:08.063Z,3.83
2022-12-23T22:19:37.238Z,5.20
2022-12-23T22:22:04.394Z,4.18
2022-12-23T22:24:31.499Z,4.15
2022-12-23T22:26:58.665Z,3.20
2022-12-23T22:29:25.879Z,3.10
2022-12-23T22:31:53.238Z,4.97
2022-12-23T22:34:22.245Z,3.97
2022-12-23T22:36:49.923Z,3.63
2022-12-23T22:39:21.046Z,4.45
2022-12-23T22:41:49.415Z,4.57
2022-12-23T22:44:16.626Z,3.97
2022-12-23T22:46:43.996Z,4.20
2022-12-23T22:49:13.025Z,3.95
2022-12-23T22:51:40.579Z,4.45
2022-12-23T22:54:08.338Z,4.40
2022-12-23T22:56:35.449Z,4.63
2022-12-23T22:59:02.557Z,4.03
2022-12-23T23:01:31.647Z,4.30
2022-12-23T23:03:59.646Z,4.30
2022-12-23T23:06:28.162Z,4.45
2022-12-23T23:08:55.659Z,4.90
2022-12-23T23:11:23.418Z,4.80
2022-12-23T23:13:50.645Z,3.97
2022-12-23T23:16:17.736Z,4.07
2022-12-23T23:18:44.914Z,3.72
2022-12-23T23:21:13.045Z,4.80
2022-12-23T23:23:41.348Z,3.47
2022-12-23T23:26:10.147Z,4.70
2022-12-23T23:28:37.904Z,3.00
2022-12-23T23:31:39.592Z,4.57
2022-12-23T23:33:52.599Z,4.10
2022-12-23T23:36:21.135Z,4.55
2022-12-23T23:38:48.226Z,3.97
2022-12-23T23:41:20.692Z,4.45
2022-12-23T23:43:49.858Z,4.63
2022-12-23T23:46:17.018Z,4.45
2022-12-23T23:48:44.186Z,5.03
2022-12-23T23:51:12.468Z,5.07
2022-12-23T23:53:39.683Z,4.53
2022-12-23T23:56:07.903Z,4.82
2022-12-23T23:58:35.745Z,4.80
